createdAt,value
2023-05-14T16:56:34.516Z,26.49
2023-05-14T16:59:03.226Z,26.33
2023-05-14T17:01:34.543Z,26.56
2023-05-14T17:04:02.974Z,26.45
2023-05-14T17:06:31.485Z,26.57
2023-05-14T17:09:00.150Z,26.49
2023-05-14T17:11:28.661Z,26.72
2023-05-14T17:14:02.014Z,26.82
2023-05-14T17:16:29.124Z,26.73
2023-05-14T17:18:56.555Z,26.72
2023-05-14T17:21:25.063Z,26.91
2023-05-14T17:23:53.236Z,27.03
2023-05-14T17:26:22.077Z,27.23
2023-05-14T17:28:53.174Z,26.94
2023-05-14T17:31:22.688Z,27.11
2023-05-14T17:33:51.274Z,27.32
2023-05-14T17:36:19.893Z,27.12
2023-05-14T17:38:48.504Z,27.50
2023-05-14T17:41:17.003Z,28.05
2023-05-14T17:43:45.528Z,27.99
2023-05-14T17:46:14.053Z,28.11
2023-05-14T17:48:42.510Z,28.28
2023-05-14T17:51:10.894Z,28.26
2023-05-14T17:53:39.343Z,28.51
2023-05-14T17:56:07.884Z,28.41
2023-05-14T17:58:36.521Z,28.62
2023-05-14T18:01:06.354Z,28.69
2023-05-14T18:03:34.902Z,28.81
2023-05-14T18:06:03.499Z,29.05
2023-05-14T18:08:32.488Z,28.99
2023-05-14T18:11:01.250Z,29.28
2023-05-14T18:13:29.667Z,28.90
2023-05-14T18:15:58.045Z,29.15
2023-05-14T18:18:26.546Z,29.31
2023-05-14T18:20:55.684Z,29.31
2023-05-14T18:23:24.175Z,29.45
2023-05-14T18:25:53.005Z,29.47
2023-05-14T18:28:21.782Z,29.74
2023-05-14T18:30:50.189Z,29.89
2023-05-14T18:33:18.806Z,29.93
2023-05-14T18:35:47.205Z,30.04
2023-05-14T18:38:18.077Z,30.16
2023-05-14T18:40:47.431Z,30.10
2023-05-14T18:43:17.116Z,30.43
2023-05-14T18:45:49.152Z,30.66
2023-05-14T18:48:17.885Z,30.82
2023-05-14T18:50:46.403Z,30.91
2023-05-14T18:53:15.135Z,31.08
2023-05-14T18:55:43.563Z,31.31
2023-05-14T18:58:12.552Z,31.46
2023-05-14T19:00:40.929Z,31.57
2023-05-14T19:03:09.379Z,31.72
2023-05-14T19:05:38.819Z,31.81
2023-05-14T19:08:09.092Z,31.83
2023-05-14T19:10:37.784Z,32.03
2023-05-14T19:13:06.831Z,32.13
2023-05-14T19:15:38.158Z,32.37
2023-05-14T19:18:07.194Z,32.49
2023-05-14T19:20:35.529Z,32.41
2023-05-14T19:23:04.130Z,32.66
2023-05-14T19:25:33.079Z,32.93
2023-05-14T19:28:04.042Z,32.71
2023-05-14T19:30:32.619Z,32.56
2023-05-14T19:33:01.283Z,32.99
2023-05-14T19:35:29.829Z,32.81
2023-05-14T19:37:58.163Z,33.04
2023-05-14T19:40:26.312Z,33.10
2023-05-14T19:42:54.639Z,33.02
2023-05-14T19:45:23.149Z,33.02
2023-05-14T19:47:51.985Z,33.08
2023-05-14T19:50:20.507Z,33.42
2023-05-14T19:52:49.245Z,33.98
2023-05-14T19:55:17.578Z,34.58
2023-05-14T19:57:45.717Z,34.63
2023-05-14T20:00:18.965Z,34.90
2023-05-14T20:02:48.579Z,35.37
2023-05-14T20:05:17.015Z,35.55
2023-05-14T20:07:47.202Z,35.54
2023-05-14T20:10:16.772Z,35.64
2023-05-14T20:12:45.153Z,36.03
2023-05-14T20:15:14.038Z,36.07
2023-05-14T20:17:42.469Z,36.16
2023-05-14T20:20:12.493Z,36.46
2023-05-14T20:22:42.819Z,36.43
2023-05-14T20:25:11.323Z,36.74
2023-05-14T20:27:40.676Z,36.89
2023-05-14T20:30:11.310Z,37.11
2023-05-14T20:32:40.019Z,37.28
2023-05-14T20:35:08.623Z,37.09
2023-05-14T20:37:38.194Z,37.36
2023-05-14T20:40:08.180Z,37.37
2023-05-14T20:42:37.656Z,37.83
2023-05-14T20:45:07.859Z,38.10
2023-05-14T20:47:37.224Z,38.05
2023-05-14T20:50:06.207Z,38.45
2023-05-14T20:52:34.568Z,38.72
2023-05-14T20:55:03.982Z,38.66
2023-05-14T20:57:32.365Z,39.15
2023-05-14T21:00:00.663Z,39.29
2023-05-14T21:02:29.263Z,39.41
2023-05-14T21:04:58.337Z,39.82
2023-05-14T21:07:28.932Z,39.98
2023-05-14T21:09:57.830Z,40.13
2023-05-14T21:12:26.467Z,40.17
2023-05-14T21:14:54.953Z,40.42
2023-05-14T21:17:23.415Z,40.87
2023-05-14T21:19:51.824Z,41.13
2023-05-14T21:22:22.557Z,41.37
2023-05-14T21:24:51.454Z,41.46
2023-05-14T21:27:19.824Z,41.59
2023-05-14T21:29:48.664Z,41.43
2023-05-14T21:32:16.993Z,41.59
2023-05-14T21:34:46.586Z,41.91
2023-05-14T21:37:14.955Z,42.11
2023-05-14T21:39:43.489Z,42.24
2023-05-14T21:42:11.637Z,42.55
2023-05-14T21:44:42.345Z,42.92
2023-05-14T21:47:11.841Z,42.85
2023-05-14T21:49:42.079Z,42.70
2023-05-14T21:52:11.059Z,42.62
2023-05-14T21:54:39.494Z,42.75
2023-05-14T21:57:07.892Z,42.81
2023-05-14T21:59:37.959Z,42.79
2023-05-14T22:02:07.915Z,42.79
2023-05-14T22:04:37.414Z,42.84
2023-05-14T22:07:05.792Z,42.89
2023-05-14T22:09:34.319Z,43.12
2023-05-14T22:12:02.822Z,43.15
2023-05-14T22:14:31.134Z,43.41
2023-05-14T22:16:59.496Z,43.46
2023-05-14T22:19:28.156Z,43.61
2023-05-14T22:21:56.677Z,43.80
2023-05-14T22:24:25.149Z,43.87
2023-05-14T22:26:53.476Z,43.97
2023-05-14T22:29:21.626Z,44.05
2023-05-14T22:31:50.079Z,43.95
2023-05-14T22:34:19.611Z,43.93
2023-05-14T22:36:47.851Z,43.67
2023-05-14T22:39:16.238Z,43.51
2023-05-14T22:41:44.524Z,43.38
2023-05-14T22:44:12.889Z,42.80
2023-05-14T22:46:41.374Z,42.42
2023-05-14T22:49:09.756Z,42.43
2023-05-14T22:51:39.126Z,42.45
2023-05-14T22:54:07.408Z,42.41
2023-05-14T22:56:38.651Z,42.51
2023-05-14T22:59:07.633Z,42.51
2023-05-14T23:01:35.918Z,42.39
2023-05-14T23:04:04.349Z,42.49
2023-05-14T23:06:32.979Z,42.44
2023-05-14T23:09:01.182Z,42.51
2023-05-14T23:11:29.859Z,42.61
2023-05-14T23:13:58.151Z,42.72
2023-05-14T23:16:29.050Z,42.57
2023-05-14T23:18:57.556Z,42.60
2023-05-14T23:21:26.380Z,42.57
2023-05-14T23:23:54.674Z,42.48
2023-05-14T23:26:22.843Z,42.50
2023-05-14T23:28:51.482Z,42.66
2023-05-14T23:31:19.848Z,42.69
2023-05-14T23:33:48.172Z,42.73
2023-05-14T23:36:16.529Z,42.78
2023-05-14T23:38:45.552Z,42.84
2023-05-14T23:41:14.050Z,42.82
2023-05-14T23:43:42.200Z,42.73
2023-05-14T23:46:10.854Z,42.74
2023-05-14T23:48:43.652Z,42.88
2023-05-14T23:51:11.986Z,42.78
2023-05-14T23:53:40.241Z,42.62
2023-05-14T23:56:08.766Z,42.83
2023-05-14T23:58:37.159Z,42.77
